createdAt,value
2016-08-18T00:00:31.474Z,-79
2016-08-18T00:01:31.271Z,-80
2016-08-18T00:02:31.452Z,-80
2016-08-18T00:03:32.126Z,-79
2016-08-18T00:04:31.174Z,-80
2016-08-18T00:05:32.487Z,-80
2016-08-18T00:06:31.331Z,-80
2016-08-18T00:07:31.282Z,-80
2016-08-18T00:08:31.277Z,-80
2016-08-18T00:09:31.400Z,-80
2016-08-18T00:10:31.366Z,-80
2016-08-18T00:11:31.331Z,-80
2016-08-18T00:12:31.200Z,-80
2016-08-18T00:13:32.121Z,-80
2016-08-18T00:14:31.405Z,-79
2016-08-18T00:15:31.457Z,-80
2016-08-18T00:16:32.177Z,-79
2016-08-18T00:17:31.518Z,-80
2016-08-18T00:18:31.317Z,-80
2016-08-18T00:19:32.254Z,-80
2016-08-18T00:20:31.638Z,-79
2016-08-18T00:21:32.785Z,-80
2016-08-18T00:22:31.195Z,-80
2016-08-18T00:23:31.406Z,-80
2016-08-18T00:24:32.278Z,-79
2016-08-18T00:25:31.589Z,-80
2016-08-18T00:26:31.463Z,-80
2016-08-18T00:27:31.333Z,-80
2016-08-18T00:28:31.510Z,-80
2016-08-18T00:29:31.696Z,-80
2016-08-18T00:30:31.253Z,-80
2016-08-18T00:31:31.519Z,-80
2016-08-18T00:32:31.463Z,-80
2016-08-18T00:33:31.338Z,-80
2016-08-18T00:34:31.373Z,-80
2016-08-18T00:35:31.502Z,-79
2016-08-18T00:36:32.442Z,-80
2016-08-18T00:37:31.619Z,-79
2016-08-18T00:38:31.230Z,-80
2016-08-18T00:39:31.454Z,-80
2016-08-18T00:40:31.425Z,-79
2016-08-18T00:41:31.346Z,-79
2016-08-18T00:42:31.555Z,-80
2016-08-18T00:43:31.553Z,-80
2016-08-18T00:44:31.455Z,-79
2016-08-18T00:45:31.389Z,-79
2016-08-18T00:46:31.469Z,-80
2016-08-18T00:47:31.518Z,-80
2016-08-18T00:48:31.438Z,-79
2016-08-18T00:49:31.150Z,-80
2016-08-18T00:50:31.404Z,-79
2016-08-18T00:51:31.418Z,-79
2016-08-18T00:52:31.612Z,-80
2016-08-18T00:53:31.417Z,-79
2016-08-18T00:54:33.144Z,-80
2016-08-18T00:55:32.391Z,-79
2016-08-18T00:56:31.991Z,-79
2016-08-18T00:57:31.456Z,-80
2016-08-18T00:58:33.613Z,-79
2016-08-18T00:59:31.626Z,-79
2016-08-18T01:00:31.571Z,-80
2016-08-18T01:01:31.657Z,-79
2016-08-18T01:02:31.530Z,-80
2016-08-18T01:03:32.272Z,-80
2016-08-18T01:04:31.423Z,-79
2016-08-18T01:05:32.153Z,-80
2016-08-18T01:06:31.622Z,-79
2016-08-18T01:07:31.391Z,-79
2016-08-18T01:08:31.738Z,-79
2016-08-18T01:09:33.416Z,-79
2016-08-18T01:10:31.509Z,-79
2016-08-18T01:11:32.355Z,-80
2016-08-18T01:12:31.661Z,-79
2016-08-18T01:17:50.911Z,-79
2016-08-18T01:17:58.371Z,-80
2016-08-18T01:18:59.451Z,-79
2016-08-18T01:19:59.510Z,-80
2016-08-18T01:20:58.424Z,-79
2016-08-18T01:21:58.297Z,-80
2016-08-18T01:22:58.760Z,-79
2016-08-18T01:23:58.424Z,-80
2016-08-18T01:24:58.360Z,-79
2016-08-18T01:27:02.970Z,-80
2016-08-18T01:27:10.354Z,-80
2016-08-18T01:28:10.101Z,-80
2016-08-18T01:29:10.522Z,-80
2016-08-18T01:30:10.568Z,-79
2016-08-18T01:31:10.939Z,-80
2016-08-18T01:32:10.346Z,-79
2016-08-18T01:33:11.558Z,-80
2016-08-18T01:34:11.910Z,-80
2016-08-18T01:35:10.253Z,-80
2016-08-18T01:36:11.586Z,-79
2016-08-18T01:37:10.355Z,-80
2016-08-18T01:38:11.130Z,-79
2016-08-18T01:39:10.351Z,-80
2016-08-18T01:40:10.426Z,-80
2016-08-18T01:41:11.174Z,-80
2016-08-18T01:42:10.990Z,-80
2016-08-18T01:43:10.558Z,-80
2016-08-18T01:44:10.367Z,-80
2016-08-18T01:45:10.382Z,-80
2016-08-18T01:46:10.423Z,-80
2016-08-18T01:47:11.090Z,-80
2016-08-18T01:48:12.518Z,-79
2016-08-18T01:49:10.486Z,-80
2016-08-18T01:50:10.236Z,-80
2016-08-18T01:51:10.325Z,-80
2016-08-18T01:52:10.466Z,-80
2016-08-18T01:53:10.343Z,-79
2016-08-18T01:54:11.095Z,-79
2016-08-18T01:55:11.009Z,-80
2016-08-18T01:56:10.674Z,-80
2016-08-18T01:57:10.553Z,-80
2016-08-18T01:58:10.308Z,-79
2016-08-18T01:59:10.256Z,-79
2016-08-18T02:00:10.429Z,-80
2016-08-18T02:01:10.271Z,-80
2016-08-18T02:02:10.523Z,-80
2016-08-18T02:03:10.178Z,-80
2016-08-18T02:04:10.312Z,-79
2016-08-18T02:05:10.798Z,-80
2016-08-18T02:06:10.484Z,-80
2016-08-18T02:07:10.448Z,-80
2016-08-18T02:08:10.780Z,-80
2016-08-18T02:09:10.475Z,-80
2016-08-18T02:10:10.676Z,-79
2016-08-18T02:11:10.488Z,-80
2016-08-18T02:12:11.312Z,-80
2016-08-18T02:13:10.533Z,-80
2016-08-18T02:14:10.508Z,-80
2016-08-18T02:15:10.388Z,-80
2016-08-18T02:16:10.999Z,-80
2016-08-18T02:17:10.361Z,-80
2016-08-18T02:18:10.447Z,-80
2016-08-18T02:19:10.413Z,-80
2016-08-18T02:20:10.419Z,-80
2016-08-18T02:21:10.449Z,-80
2016-08-18T02:22:10.382Z,-80
2016-08-18T02:23:10.613Z,-80
2016-08-18T02:24:10.313Z,-80
2016-08-18T02:25:10.786Z,-80
2016-08-18T02:26:11.578Z,-80
2016-08-18T02:27:10.442Z,-80
2016-08-18T02:28:10.739Z,-80
2016-08-18T02:29:10.303Z,-80
2016-08-18T02:30:12.194Z,-80
2016-08-18T02:31:10.830Z,-80
2016-08-18T02:32:10.516Z,-80
2016-08-18T02:33:11.032Z,-80
2016-08-18T02:34:11.199Z,-80
2016-08-18T02:35:10.582Z,-80
2016-08-18T02:36:11.085Z,-80
2016-08-18T02:37:11.131Z,-80
2016-08-18T02:38:11.289Z,-80
2016-08-18T02:39:10.739Z,-80
2016-08-18T02:40:11.448Z,-79
2016-08-18T02:41:10.352Z,-80
2016-08-18T02:42:10.198Z,-80
2016-08-18T02:43:10.188Z,-80
2016-08-18T02:44:10.137Z,-80
2016-08-18T02:45:10.284Z,-80
2016-08-18T02:46:10.132Z,-80
2016-08-18T02:47:10.157Z,-80
2016-08-18T02:48:10.233Z,-80
2016-08-18T02:49:10.577Z,-79
2016-08-18T02:50:10.080Z,-80
2016-08-18T02:51:10.075Z,-80
2016-08-18T02:52:10.011Z,-80
2016-08-18T02:53:10.093Z,-80
2016-08-18T02:54:10.095Z,-80
2016-08-18T02:55:10.098Z,-80
2016-08-18T02:56:10.177Z,-79
2016-08-18T02:57:10.102Z,-80
2016-08-18T02:58:10.026Z,-80
2016-08-18T02:59:10.169Z,-80
2016-08-18T03:00:10.805Z,-80
2016-08-18T03:01:10.039Z,-79
2016-08-18T03:02:10.190Z,-80
2016-08-18T03:03:10.193Z,-80
2016-08-18T03:04:10.450Z,-80
2016-08-18T03:05:10.049Z,-80
2016-08-18T03:06:10.125Z,-80
2016-08-18T03:07:10.213Z,-80
2016-08-18T03:08:10.578Z,-80
2016-08-18T03:09:10.215Z,-80
2016-08-18T03:10:10.204Z,-80
2016-08-18T03:11:10.229Z,-80
2016-08-18T03:12:10.281Z,-80
2016-08-18T03:13:10.226Z,-80
2016-08-18T03:14:10.218Z,-80
2016-08-18T03:15:10.159Z,-80
2016-08-18T03:16:10.300Z,-80
2016-08-18T03:17:10.229Z,-80
2016-08-18T03:18:10.325Z,-80
2016-08-18T03:19:10.183Z,-80
2016-08-18T03:20:10.211Z,-80
2016-08-18T03:21:10.182Z,-79
2016-08-18T03:22:10.263Z,-80
2016-08-18T03:23:10.494Z,-79
2016-08-18T03:24:10.184Z,-80
2016-08-18T03:25:10.186Z,-80
2016-08-18T03:26:10.199Z,-80
2016-08-18T03:27:10.367Z,-80
2016-08-18T03:28:10.260Z,-80
2016-08-18T03:29:10.193Z,-80
2016-08-18T03:30:10.109Z,-80
2016-08-18T03:31:10.376Z,-80
2016-08-18T03:32:10.263Z,-80
2016-08-18T03:33:10.193Z,-80
2016-08-18T03:34:10.188Z,-80
2016-08-18T03:35:10.497Z,-80
2016-08-18T03:36:10.275Z,-80
2016-08-18T03:37:10.217Z,-80
2016-08-18T03:38:10.307Z,-80
2016-08-18T03:39:10.219Z,-80
2016-08-18T03:40:10.230Z,-79
2016-08-18T03:41:10.143Z,-80
2016-08-18T03:42:10.150Z,-80
2016-08-18T03:43:10.307Z,-80
2016-08-18T03:44:10.299Z,-80
2016-08-18T03:45:10.156Z,-80
2016-08-18T03:46:10.427Z,-80
2016-08-18T03:47:10.304Z,-80
2016-08-18T03:48:10.243Z,-80
2016-08-18T03:49:10.402Z,-80
2016-08-18T03:50:10.581Z,-80
2016-08-18T03:51:10.245Z,-80
2016-08-18T03:52:10.358Z,-80
2016-08-18T03:53:10.255Z,-80
2016-08-18T03:54:10.410Z,-80
2016-08-18T03:55:10.264Z,-79
2016-08-18T03:56:10.262Z,-80
2016-08-18T03:57:10.282Z,-79
2016-08-18T03:58:10.600Z,-80
2016-08-18T03:59:10.412Z,-80
2016-08-18T04:00:10.345Z,-80
2016-08-18T04:01:10.271Z,-80
2016-08-18T04:02:10.360Z,-80
2016-08-18T04:03:10.358Z,-79
2016-08-18T04:04:10.227Z,-80
2016-08-18T04:05:10.281Z,-80
2016-08-18T04:06:10.393Z,-80
2016-08-18T04:07:10.362Z,-80
2016-08-18T04:08:10.301Z,-80
2016-08-18T04:09:10.384Z,-80
2016-08-18T04:10:10.397Z,-80
2016-08-18T04:11:10.318Z,-80
2016-08-18T04:12:10.428Z,-80
2016-08-18T04:13:10.515Z,-80
2016-08-18T04:14:10.311Z,-80
2016-08-18T04:15:10.954Z,-79
2016-08-18T04:16:10.311Z,-80
2016-08-18T04:17:10.447Z,-80
2016-08-18T04:18:10.400Z,-80
2016-08-18T04:19:10.410Z,-80
2016-08-18T04:20:10.469Z,-80
2016-08-18T04:21:10.468Z,-80
2016-08-18T04:22:10.476Z,-80
2016-08-18T04:23:10.363Z,-80
2016-08-18T04:24:10.422Z,-80
2016-08-18T04:25:10.423Z,-80
2016-08-18T04:26:10.371Z,-80
2016-08-18T04:27:10.369Z,-80
2016-08-18T04:28:10.558Z,-80
2016-08-18T04:29:10.523Z,-80
2016-08-18T04:30:10.442Z,-80
2016-08-18T04:31:10.363Z,-79
2016-08-18T04:32:10.618Z,-80
2016-08-18T04:33:10.289Z,-80
2016-08-18T04:34:10.447Z,-80
2016-08-18T04:35:10.539Z,-80
2016-08-18T04:36:10.599Z,-80
2016-08-18T04:37:10.529Z,-80
2016-08-18T04:38:10.527Z,-80
2016-08-18T04:39:10.460Z,-79
2016-08-18T04:40:10.725Z,-80
2016-08-18T04:41:10.413Z,-80
2016-08-18T04:42:10.392Z,-80
2016-08-18T04:43:10.487Z,-80
2016-08-18T04:44:10.611Z,-79
2016-08-18T04:45:10.409Z,-80
2016-08-18T04:46:10.550Z,-80
2016-08-18T04:47:10.425Z,-80
2016-08-18T04:48:10.348Z,-79
2016-08-18T04:49:10.500Z,-79
2016-08-18T04:50:10.445Z,-80
2016-08-18T04:51:10.628Z,-80
2016-08-18T04:52:10.463Z,-83
2016-08-18T04:53:10.507Z,-83
2016-08-18T04:54:10.517Z,-84
2016-08-18T04:55:10.719Z,-84
2016-08-18T04:56:10.366Z,-84
2016-08-18T04:57:10.445Z,-84
2016-08-18T04:58:10.525Z,-84
2016-08-18T04:59:10.886Z,-83
2016-08-18T05:00:10.467Z,-84
2016-08-18T05:01:10.442Z,-84
2016-08-18T05:02:10.468Z,-84
2016-08-18T05:03:10.858Z,-84
2016-08-18T05:04:10.448Z,-84
2016-08-18T05:05:10.460Z,-84
2016-08-18T05:06:10.490Z,-84
2016-08-18T05:07:10.624Z,-84
2016-08-18T05:08:10.492Z,-84
2016-08-18T05:09:10.550Z,-84
2016-08-18T05:10:10.474Z,-84
2016-08-18T05:11:10.475Z,-84
2016-08-18T05:12:10.487Z,-84
2016-08-18T05:13:10.404Z,-83
2016-08-18T05:14:10.583Z,-84
2016-08-18T05:15:10.412Z,-84
2016-08-18T05:16:10.591Z,-84
2016-08-18T05:17:10.510Z,-83
2016-08-18T05:18:10.789Z,-84
2016-08-18T05:19:10.505Z,-84
2016-08-18T05:20:10.652Z,-84
2016-08-18T05:21:10.696Z,-84
2016-08-18T05:22:10.798Z,-84
2016-08-18T05:23:10.438Z,-84
2016-08-18T05:24:10.517Z,-83
2016-08-18T05:25:10.540Z,-84
2016-08-18T05:26:10.760Z,-84
2016-08-18T05:27:10.625Z,-84
2016-08-18T05:28:10.540Z,-84
2016-08-18T05:29:10.473Z,-84
2016-08-18T05:30:10.591Z,-83
2016-08-18T05:31:10.558Z,-84
2016-08-18T05:32:10.775Z,-83
2016-08-18T05:33:10.623Z,-84
2016-08-18T05:34:10.531Z,-84
2016-08-18T05:35:10.616Z,-84
2016-08-18T05:36:10.471Z,-84
2016-08-18T05:37:10.482Z,-83
2016-08-18T05:38:10.598Z,-84
2016-08-18T05:39:10.651Z,-84
2016-08-18T05:40:10.701Z,-83
2016-08-18T05:41:10.538Z,-83
2016-08-18T05:42:10.570Z,-84
2016-08-18T05:43:10.586Z,-84
2016-08-18T05:44:10.492Z,-83
2016-08-18T05:45:11.573Z,-83
2016-08-18T05:46:10.596Z,-83
2016-08-18T05:47:10.664Z,-84
2016-08-18T05:48:10.590Z,-83
2016-08-18T05:49:10.799Z,-83
2016-08-18T05:50:10.588Z,-83
2016-08-18T05:51:10.651Z,-84
2016-08-18T05:52:10.842Z,-83
2016-08-18T05:53:10.757Z,-84
2016-08-18T05:54:10.903Z,-84
2016-08-18T05:55:11.130Z,-85
2016-08-18T05:56:10.627Z,-84
2016-08-18T05:57:10.618Z,-84
2016-08-18T05:58:10.688Z,-84
2016-08-18T05:59:10.674Z,-84
2016-08-18T06:00:10.992Z,-84
2016-08-18T06:01:10.718Z,-84
2016-08-18T06:02:10.770Z,-84
2016-08-18T06:03:10.698Z,-84
2016-08-18T06:04:10.980Z,-84
2016-08-18T06:05:10.733Z,-84
2016-08-18T06:06:10.751Z,-85
2016-08-18T06:07:10.734Z,-85
2016-08-18T06:08:10.969Z,-84
2016-08-18T06:09:10.567Z,-85
2016-08-18T06:10:10.654Z,-85
2016-08-18T06:11:10.831Z,-85
2016-08-18T06:12:11.140Z,-84
2016-08-18T06:13:10.649Z,-85
2016-08-18T06:14:10.735Z,-85
2016-08-18T06:15:10.858Z,-85
2016-08-18T06:16:10.986Z,-84
2016-08-18T06:17:10.813Z,-84
2016-08-18T06:18:10.614Z,-85
2016-08-18T06:19:10.661Z,-84
2016-08-18T06:20:11.029Z,-84
2016-08-18T06:21:10.823Z,-85
2016-08-18T06:22:11.417Z,-84
2016-08-18T06:23:10.839Z,-84
2016-08-18T06:24:11.043Z,-85
2016-08-18T06:25:10.726Z,-85
2016-08-18T06:26:10.706Z,-84
2016-08-18T06:27:10.796Z,-85
2016-08-18T06:28:11.094Z,-84
2016-08-18T06:29:10.792Z,-84
2016-08-18T06:30:10.729Z,-84
2016-08-18T06:31:10.708Z,-84
2016-08-18T06:32:10.808Z,-84
2016-08-18T06:33:10.671Z,-84
2016-08-18T06:34:10.836Z,-85
2016-08-18T06:35:10.981Z,-84
2016-08-18T06:36:10.742Z,-85
2016-08-18T06:37:10.842Z,-84
2016-08-18T06:38:10.728Z,-84
2016-08-18T06:39:10.826Z,-85
2016-08-18T06:40:10.771Z,-85
2016-08-18T06:41:10.899Z,-85
2016-08-18T06:42:10.852Z,-85
2016-08-18T06:43:11.183Z,-84
2016-08-18T06:44:10.759Z,-84
2016-08-18T06:45:10.892Z,-85
2016-08-18T06:46:10.788Z,-85
2016-08-18T06:47:10.929Z,-85
2016-08-18T06:48:10.776Z,-84
2016-08-18T06:49:10.771Z,-84
2016-08-18T06:50:10.690Z,-84
2016-08-18T06:51:11.041Z,-85
2016-08-18T06:52:10.782Z,-85
2016-08-18T06:53:10.899Z,-84
2016-08-18T06:54:11.911Z,-84
2016-08-18T06:55:10.934Z,-85
2016-08-18T06:56:10.718Z,-85
2016-08-18T06:57:10.827Z,-85
2016-08-18T06:58:10.903Z,-85
2016-08-18T06:59:10.819Z,-85
2016-08-18T07:00:11.303Z,-85
2016-08-18T07:01:10.962Z,-84
2016-08-18T07:02:11.035Z,-84
2016-08-18T07:03:11.539Z,-85
2016-08-18T07:04:10.976Z,-83
2016-08-18T07:05:11.011Z,-84
2016-08-18T07:06:12.084Z,-83
2016-08-18T07:07:10.894Z,-85
2016-08-18T07:08:11.033Z,-85
2016-08-18T07:09:10.920Z,-85
2016-08-18T07:10:11.759Z,-86
2016-08-18T07:11:10.908Z,-85
2016-08-18T07:12:10.836Z,-85
2016-08-18T07:13:10.781Z,-84
2016-08-18T07:14:12.170Z,-84
2016-08-18T07:15:10.932Z,-85
2016-08-18T07:16:11.021Z,-84
2016-08-18T07:17:11.047Z,-84
2016-08-18T07:18:11.275Z,-84
2016-08-18T07:19:10.964Z,-84
2016-08-18T07:20:10.878Z,-85
2016-08-18T07:21:11.035Z,-84
2016-08-18T07:22:10.874Z,-84
2016-08-18T07:23:10.963Z,-84
2016-08-18T07:24:11.041Z,-84
2016-08-18T07:25:10.875Z,-84
2016-08-18T07:26:11.419Z,-84
2016-08-18T07:27:11.064Z,-84
2016-08-18T07:28:10.985Z,-84
2016-08-18T07:29:11.065Z,-84
2016-08-18T07:30:11.122Z,-84
2016-08-18T07:31:11.291Z,-84
2016-08-18T07:32:11.381Z,-84
2016-08-18T07:33:11.903Z,-84
2016-08-18T07:34:10.894Z,-82
2016-08-18T07:35:11.097Z,-83
2016-08-18T07:36:11.300Z,-83
2016-08-18T07:37:11.334Z,-83
2016-08-18T07:38:11.004Z,-83
2016-08-18T07:39:10.958Z,-83
2016-08-18T07:40:11.556Z,-83
2016-08-18T07:41:11.279Z,-83
2016-08-18T07:42:11.681Z,-83
2016-08-18T07:43:11.100Z,-82
2016-08-18T07:44:11.120Z,-83
2016-08-18T07:45:11.416Z,-83
2016-08-18T07:46:12.765Z,-83
2016-08-18T07:47:11.097Z,-83
2016-08-18T07:48:10.957Z,-82
2016-08-18T07:49:11.116Z,-83
2016-08-18T07:50:11.156Z,-82
2016-08-18T07:51:11.314Z,-83
2016-08-18T07:52:11.241Z,-83
2016-08-18T07:53:11.162Z,-83
2016-08-18T07:54:11.229Z,-83
2016-08-18T07:55:11.259Z,-83
2016-08-18T07:56:11.653Z,-83
2016-08-18T07:57:11.070Z,-82
2016-08-18T07:58:11.720Z,-83
2016-08-18T07:59:10.927Z,-83
2016-08-18T08:00:15.015Z,-82
2016-08-18T08:01:11.046Z,-82
2016-08-18T08:02:11.011Z,-82
2016-08-18T08:03:11.203Z,-82
2016-08-18T08:04:11.127Z,-83
2016-08-18T08:05:11.065Z,-83
2016-08-18T08:06:10.982Z,-82
2016-08-18T08:07:11.077Z,-82
2016-08-18T08:08:11.213Z,-83
2016-08-18T08:09:11.160Z,-82
2016-08-18T08:10:10.973Z,-82
2016-08-18T08:11:11.200Z,-82
2016-08-18T08:12:10.993Z,-82
2016-08-18T08:13:10.957Z,-83
2016-08-18T08:14:11.861Z,-82
2016-08-18T08:15:11.014Z,-83
2016-08-18T08:16:10.987Z,-83
2016-08-18T08:17:11.915Z,-82
2016-08-18T08:18:11.112Z,-82
2016-08-18T08:19:11.174Z,-82
2016-08-18T08:20:11.137Z,-83
2016-08-18T08:21:11.482Z,-82
2016-08-18T08:22:10.959Z,-82
2016-08-18T08:23:11.242Z,-83
2016-08-18T08:24:13.024Z,-82
2016-08-18T08:25:11.231Z,-82
2016-08-18T08:26:11.208Z,-82
2016-08-18T08:27:11.815Z,-82
2016-08-18T08:28:11.005Z,-82
2016-08-18T08:29:11.098Z,-82
2016-08-18T08:30:14.994Z,-82
2016-08-18T08:31:11.349Z,-82
2016-08-18T08:32:11.166Z,-82
2016-08-18T08:33:11.210Z,-82
2016-08-18T08:34:14.584Z,-82
2016-08-18T08:35:15.438Z,-82
2016-08-18T08:36:12.951Z,-82
2016-08-18T08:37:12.369Z,-82
2016-08-18T08:38:11.931Z,-82
2016-08-18T08:39:12.027Z,-82
2016-08-18T08:40:15.145Z,-82
2016-08-18T08:41:11.270Z,-82
2016-08-18T08:42:11.250Z,-82
2016-08-18T08:43:11.305Z,-82
2016-08-18T08:44:11.122Z,-82
2016-08-18T08:45:11.263Z,-82
2016-08-18T08:46:11.993Z,-82
2016-08-18T08:47:11.271Z,-82
2016-08-18T08:48:11.068Z,-82
2016-08-18T08:49:11.114Z,-82
2016-08-18T08:50:16.766Z,-82
2016-08-18T08:51:11.403Z,-82
2016-08-18T08:52:11.250Z,-82
2016-08-18T08:53:11.650Z,-82
2016-08-18T08:54:11.156Z,-82
2016-08-18T08:55:16.027Z,-82
2016-08-18T08:56:11.568Z,-82
2016-08-18T08:57:13.021Z,-82
2016-08-18T08:58:11.222Z,-82
2016-08-18T08:59:11.766Z,-81
2016-08-18T09:00:11.069Z,-82
2016-08-18T09:01:11.561Z,-82
2016-08-18T09:02:11.512Z,-81
2016-08-18T09:03:11.162Z,-81
2016-08-18T09:04:11.289Z,-81
2016-08-18T09:05:14.003Z,-82
2016-08-18T09:06:11.455Z,-82
2016-08-18T09:07:11.200Z,-82
2016-08-18T09:08:11.101Z,-81
2016-08-18T09:09:11.158Z,-82
2016-08-18T09:10:11.498Z,-82
2016-08-18T09:11:11.395Z,-82
2016-08-18T09:12:11.504Z,-81
2016-08-18T09:13:11.472Z,-82
2016-08-18T09:14:11.298Z,-81
2016-08-18T09:15:11.336Z,-81
2016-08-18T09:16:11.330Z,-82
2016-08-18T09:17:11.192Z,-81
2016-08-18T09:18:12.330Z,-82
2016-08-18T09:19:11.904Z,-82
2016-08-18T09:20:13.285Z,-82
2016-08-18T09:21:11.572Z,-82
2016-08-18T09:22:11.748Z,-82
2016-08-18T09:23:11.455Z,-82
2016-08-18T09:24:11.432Z,-82
2016-08-18T09:25:11.682Z,-82
2016-08-18T09:26:11.486Z,-82
2016-08-18T09:27:11.495Z,-81
2016-08-18T09:28:11.160Z,-82
2016-08-18T09:29:12.109Z,-82
2016-08-18T09:30:11.911Z,-82
2016-08-18T09:31:11.331Z,-82
2016-08-18T09:32:11.291Z,-81
2016-08-18T09:33:11.312Z,-82
2016-08-18T09:34:11.591Z,-82
2016-08-18T09:35:11.909Z,-82
2016-08-18T09:36:11.843Z,-82
2016-08-18T09:37:11.287Z,-82
2016-08-18T09:38:11.385Z,-82
2016-08-18T09:39:11.478Z,-82
2016-08-18T09:40:12.352Z,-82
2016-08-18T09:41:11.293Z,-82
2016-08-18T09:42:11.806Z,-81
2016-08-18T09:43:11.428Z,-82
2016-08-18T09:44:11.600Z,-82
2016-08-18T09:45:11.493Z,-82
2016-08-18T09:46:11.704Z,-82
2016-08-18T09:47:11.495Z,-82
2016-08-18T09:48:11.347Z,-82
2016-08-18T09:49:11.932Z,-82
2016-08-18T09:50:12.506Z,-82
2016-08-18T09:51:11.438Z,-82
2016-08-18T09:52:11.244Z,-83
2016-08-18T09:53:11.454Z,-82
2016-08-18T09:54:11.321Z,-82
2016-08-18T09:55:11.675Z,-82
2016-08-18T09:56:11.407Z,-82
2016-08-18T09:57:12.275Z,-81
2016-08-18T09:58:11.487Z,-82
2016-08-18T09:59:11.499Z,-82
2016-08-18T10:00:14.017Z,-82
2016-08-18T10:01:11.371Z,-82
2016-08-18T10:02:11.436Z,-81
2016-08-18T10:03:11.707Z,-82
2016-08-18T10:04:11.350Z,-82
2016-08-18T10:05:11.720Z,-82
2016-08-18T10:06:11.995Z,-82
2016-08-18T10:07:11.728Z,-82
2016-08-18T10:08:11.549Z,-80
2016-08-18T10:09:11.513Z,-80
2016-08-18T10:10:17.418Z,-81
2016-08-18T10:11:11.708Z,-82
2016-08-18T10:12:11.371Z,-82
2016-08-18T10:13:11.869Z,-82
2016-08-18T10:14:11.412Z,-82
2016-08-18T10:15:13.404Z,-82
2016-08-18T10:16:11.334Z,-82
2016-08-18T10:17:11.467Z,-81
2016-08-18T10:18:11.622Z,-81
2016-08-18T10:19:11.736Z,-81
2016-08-18T10:20:11.475Z,-81
2016-08-18T10:21:11.428Z,-82
2016-08-18T10:22:12.518Z,-81
2016-08-18T10:23:11.660Z,-82
2016-08-18T10:24:11.480Z,-82
2016-08-18T10:25:12.330Z,-81
2016-08-18T10:26:11.809Z,-82
2016-08-18T10:27:11.546Z,-82
2016-08-18T10:28:11.537Z,-81
2016-08-18T10:29:11.617Z,-82
2016-08-18T10:30:11.469Z,-81
2016-08-18T10:31:12.457Z,-81
2016-08-18T10:32:11.488Z,-81
2016-08-18T10:33:11.634Z,-81
2016-08-18T10:34:11.502Z,-82
2016-08-18T10:35:12.451Z,-82
2016-08-18T10:36:11.412Z,-82
2016-08-18T10:37:11.769Z,-81
2016-08-18T10:38:11.749Z,-82
2016-08-18T10:39:11.620Z,-82
2016-08-18T10:40:12.315Z,-81
2016-08-18T10:41:11.455Z,-81
2016-08-18T10:42:11.789Z,-81
2016-08-18T10:43:11.727Z,-80
2016-08-18T10:44:11.747Z,-81
2016-08-18T10:45:11.712Z,-82
2016-08-18T10:46:11.648Z,-80
2016-08-18T10:47:11.492Z,-81
2016-08-18T10:48:11.421Z,-81
2016-08-18T10:49:11.508Z,-82
2016-08-18T10:50:11.765Z,-81
2016-08-18T10:51:11.715Z,-81
2016-08-18T10:52:11.772Z,-81
2016-08-18T10:53:11.507Z,-81
2016-08-18T10:54:11.718Z,-82
2016-08-18T10:55:11.789Z,-81
2016-08-18T10:56:11.531Z,-82
2016-08-18T10:57:11.742Z,-82
2016-08-18T10:58:11.747Z,-81
2016-08-18T10:59:11.681Z,-82
2016-08-18T11:00:15.011Z,-82
2016-08-18T11:01:11.891Z,-81
2016-08-18T11:02:12.001Z,-81
2016-08-18T11:03:11.722Z,-87
2016-08-18T11:04:11.628Z,-87
2016-08-18T11:05:12.042Z,-87
2016-08-18T11:06:11.585Z,-86
2016-08-18T11:07:11.689Z,-86
2016-08-18T11:08:11.555Z,-86
2016-08-18T11:09:12.612Z,-86
2016-08-18T11:10:12.088Z,-87
2016-08-18T11:11:11.577Z,-87
2016-08-18T11:12:12.480Z,-87
2016-08-18T11:13:11.652Z,-85
2016-08-18T11:14:11.653Z,-86
2016-08-18T11:15:11.685Z,-86
2016-08-18T11:16:11.640Z,-86
2016-08-18T11:17:11.686Z,-86
2016-08-18T11:18:11.752Z,-85
2016-08-18T11:19:11.694Z,-86
2016-08-18T11:20:11.725Z,-86
2016-08-18T11:21:11.791Z,-86
2016-08-18T11:22:11.775Z,-86
2016-08-18T11:23:11.621Z,-85
2016-08-18T11:24:11.998Z,-86
2016-08-18T11:25:11.693Z,-85
2016-08-18T11:26:11.807Z,-86
2016-08-18T11:27:11.757Z,-87
2016-08-18T11:28:12.190Z,-86
2016-08-18T11:29:11.855Z,-86
2016-08-18T11:30:11.627Z,-86
2016-08-18T11:31:11.642Z,-86
2016-08-18T11:32:11.775Z,-86
2016-08-18T11:33:11.691Z,-87
2016-08-18T11:34:11.737Z,-84
2016-08-18T11:35:11.827Z,-85
2016-08-18T11:36:11.791Z,-84
2016-08-18T11:37:11.707Z,-85
2016-08-18T11:38:11.827Z,-84
2016-08-18T11:39:12.656Z,-85
2016-08-18T11:40:11.614Z,-86
2016-08-18T11:41:11.855Z,-87
2016-08-18T11:42:11.707Z,-86
2016-08-18T11:43:11.847Z,-86
2016-08-18T11:44:11.674Z,-86
2016-08-18T11:45:12.047Z,-86
2016-08-18T11:46:11.683Z,-86
2016-08-18T11:47:11.827Z,-85
2016-08-18T11:48:12.035Z,-86
2016-08-18T11:49:11.924Z,-86
2016-08-18T11:50:12.398Z,-86
2016-08-18T11:51:11.734Z,-87
2016-08-18T11:52:11.769Z,-87
2016-08-18T11:53:11.690Z,-87
2016-08-18T11:54:11.763Z,-87
2016-08-18T11:55:11.888Z,-87
2016-08-18T11:56:11.867Z,-86
2016-08-18T12:12:11.721Z,-87
2016-08-18T12:13:11.536Z,-87
2016-08-18T12:14:11.559Z,-87
2016-08-18T12:15:12.212Z,-88
2016-08-18T12:16:12.273Z,-87
2016-08-18T12:17:12.278Z,-87
2016-08-18T12:18:12.976Z,-88
2016-08-18T12:19:12.233Z,-90
2016-08-18T12:20:12.089Z,-88
2016-08-18T12:21:12.137Z,-87
2016-08-18T12:22:12.430Z,-88
2016-08-18T12:23:12.871Z,-87
2016-08-18T12:24:12.265Z,-87
2016-08-18T12:25:12.145Z,-88
2016-08-18T12:26:12.154Z,-84
2016-08-18T12:27:12.302Z,-83
2016-08-18T12:28:13.029Z,-84
2016-08-18T12:29:12.111Z,-82
2016-08-18T12:30:12.209Z,-82
2016-08-18T12:31:12.203Z,-82
2016-08-18T12:32:12.115Z,-82
2016-08-18T12:33:12.090Z,-82
2016-08-18T12:34:12.139Z,-82
2016-08-18T12:35:11.982Z,-82
2016-08-18T12:36:13.383Z,-82
2016-08-18T12:37:12.248Z,-82
2016-08-18T12:38:12.700Z,-81
2016-08-18T12:39:14.415Z,-85
2016-08-18T12:40:12.239Z,-88
2016-08-18T12:41:12.862Z,-89
2016-08-18T12:42:12.130Z,-90
2016-08-18T12:43:12.298Z,-89
2016-08-18T12:44:12.499Z,-88
2016-08-18T12:45:12.178Z,-89
2016-08-18T12:46:12.081Z,-89
2016-08-18T12:47:12.316Z,-89
2016-08-18T12:48:12.184Z,-88
2016-08-18T12:49:12.224Z,-88
2016-08-18T12:50:12.586Z,-88
2016-08-18T12:51:12.871Z,-87
2016-08-18T12:52:12.034Z,-88
2016-08-18T12:53:12.096Z,-88
2016-08-18T12:54:12.344Z,-88
2016-08-18T12:55:13.198Z,-87
2016-08-18T12:56:12.085Z,-88
2016-08-18T12:57:12.142Z,-90
2016-08-18T12:58:12.254Z,-87
2016-08-18T12:59:12.171Z,-89
2016-08-18T13:00:11.866Z,-87
2016-08-18T13:01:12.034Z,-87
2016-08-18T13:02:12.514Z,-87
2016-08-18T13:03:12.241Z,-86
2016-08-18T13:04:12.147Z,-87
2016-08-18T13:05:12.160Z,-87
2016-08-18T13:06:11.933Z,-85
2016-08-18T13:07:11.969Z,-85
2016-08-18T13:08:12.334Z,-85
2016-08-18T13:09:12.360Z,-85
2016-08-18T13:10:12.527Z,-85
2016-08-18T13:11:12.431Z,-85
2016-08-18T13:12:12.960Z,-84
2016-08-18T13:13:13.632Z,-84
2016-08-18T13:14:13.462Z,-85
2016-08-18T13:15:12.321Z,-85
2016-08-18T13:16:12.263Z,-85
2016-08-18T13:17:12.354Z,-85
2016-08-18T13:18:12.379Z,-85
2016-08-18T13:19:12.286Z,-86
2016-08-18T13:20:12.269Z,-84
2016-08-18T13:21:12.492Z,-84
2016-08-18T13:22:12.386Z,-86
2016-08-18T13:23:13.131Z,-85
2016-08-18T13:24:12.197Z,-85
2016-08-18T13:25:13.156Z,-86
2016-08-18T13:26:12.403Z,-85
2016-08-18T13:27:12.445Z,-85
2016-08-18T13:28:12.354Z,-85
2016-08-18T13:29:13.122Z,-85
2016-08-18T13:30:12.244Z,-87
2016-08-18T13:31:12.174Z,-85
2016-08-18T13:32:12.385Z,-85
2016-08-18T13:33:12.409Z,-85
2016-08-18T13:34:12.293Z,-85
2016-08-18T13:35:12.262Z,-85
2016-08-18T13:36:12.363Z,-85
2016-08-18T13:37:12.151Z,-86
2016-08-18T13:38:12.088Z,-85
2016-08-18T13:39:12.487Z,-86
2016-08-18T13:40:12.368Z,-85
2016-08-18T13:41:12.767Z,-87
2016-08-18T13:42:12.214Z,-88
2016-08-18T13:43:12.297Z,-88
2016-08-18T13:44:13.646Z,-88
2016-08-18T13:45:12.451Z,-88
2016-08-18T13:46:12.360Z,-88
2016-08-18T13:47:12.400Z,-89
2016-08-18T13:48:11.935Z,-88
2016-08-18T13:49:12.268Z,-88
2016-08-18T13:50:13.021Z,-88
2016-08-18T13:51:12.230Z,-88
2016-08-18T13:52:12.460Z,-87
2016-08-18T13:53:12.284Z,-88
2016-08-18T13:54:12.241Z,-88
2016-08-18T13:55:12.320Z,-87
2016-08-18T13:56:13.149Z,-88
2016-08-18T13:57:12.202Z,-88
2016-08-18T13:58:12.632Z,-88
2016-08-18T13:59:12.489Z,-88
2016-08-18T14:00:12.557Z,-88
2016-08-18T14:01:12.478Z,-87
2016-08-18T14:02:12.954Z,-87
2016-08-18T14:03:12.326Z,-87
2016-08-18T14:04:12.992Z,-90
2016-08-18T14:05:12.238Z,-89